sensor_id;sensor_type;location;lat;lon;timestamp;pressure;altitude;pressure_sealevel;temperature;humidity
15914;BME280;8055;51.930;8.840;2023-07-13T00:02:15;75067.41;;;-145.72;87.89
15914;BME280;8055;51.930;8.840;2023-07-13T00:04:40;75061.22;;;-145.72;90.08
15914;BME280;8055;51.930;8.840;2023-07-13T00:07:07;75071.56;;;-145.72;87.94
15914;BME280;8055;51.930;8.840;2023-07-13T00:09:32;75055.00;;;-145.72;88.31
15914;BME280;8055;51.930;8.840;2023-07-13T00:11:58;75063.28;;;-145.72;85.95
15914;BME280;8055;51.930;8.840;2023-07-13T00:14:24;75061.22;;;-145.72;86.87
15914;BME280;8055;51.930;8.840;2023-07-13T00:16:50;75061.22;;;-145.72;87.03
15914;BME280;8055;51.930;8.840;2023-07-13T00:19:16;75059.13;;;-145.72;85.79
15914;BME280;8055;51.930;8.840;2023-07-13T00:21:42;75057.06;;;-145.72;85.14
15914;BME280;8055;51.930;8.840;2023-07-13T00:24:10;75055.00;;;-145.72;86.54
15914;BME280;8055;51.930;8.840;2023-07-13T00:26:38;75055.00;;;-145.72;84.67
15914;BME280;8055;51.930;8.840;2023-07-13T00:29:03;75063.28;;;-145.72;89.35
15914;BME280;8055;51.930;8.840;2023-07-13T00:31:30;75094.31;;;-145.72;91.54
15914;BME280;8055;51.930;8.840;2023-07-13T00:33:56;75086.03;;;-145.72;87.69
15914;BME280;8055;51.930;8.840;2023-07-13T00:36:22;75090.19;;;-145.72;87.44
15914;BME280;8055;51.930;8.840;2023-07-13T00:38:47;75090.19;;;-145.72;88.50
15914;BME280;8055;51.930;8.840;2023-07-13T00:41:13;75096.38;;;-145.72;86.98
15914;BME280;8055;51.930;8.840;2023-07-13T00:43:40;75096.38;;;-145.72;89.47
15914;BME280;8055;51.930;8.840;2023-07-13T00:46:27;75096.38;;;-145.72;89.41
15914;BME280;8055;51.930;8.840;2023-07-13T00:48:54;75098.44;;;-145.72;89.53
15914;BME280;8055;51.930;8.840;2023-07-13T00:51:26;75098.44;;;-145.72;89.30
15914;BME280;8055;51.930;8.840;2023-07-13T00:53:54;75098.44;;;-145.72;89.14
15914;BME280;8055;51.930;8.840;2023-07-13T00:56:21;75098.44;;;-145.72;88.44
15914;BME280;8055;51.930;8.840;2023-07-13T00:58:47;75102.59;;;-145.72;90.47
15914;BME280;8055;51.930;8.840;2023-07-13T01:01:13;75108.78;;;-145.72;90.48
15914;BME280;8055;51.930;8.840;2023-07-13T01:03:38;75119.13;;;-145.72;95.10
15914;BME280;8055;51.930;8.840;2023-07-13T01:06:05;75127.41;;;-145.72;90.95
15914;BME280;8055;51.930;8.840;2023-07-13T01:08:31;75150.16;;;-145.72;96.26
15914;BME280;8055;51.930;8.840;2023-07-13T01:10:57;75164.66;;;-145.72;95.71
15914;BME280;8055;51.930;8.840;2023-07-13T01:13:26;75172.94;;;-145.72;100.00
15914;BME280;8055;51.930;8.840;2023-07-13T01:15:52;75187.41;;;-145.72;100.00
15914;BME280;8055;51.930;8.840;2023-07-13T01:18:21;75177.06;;;-145.72;97.03
15914;BME280;8055;51.930;8.840;2023-07-13T01:21:04;75158.44;;;-145.72;94.06
15914;BME280;8055;51.930;8.840;2023-07-13T01:23:31;75170.88;;;-145.72;96.19
15914;BME280;8055;51.930;8.840;2023-07-13T01:25:58;75166.72;;;-145.72;96.78
15914;BME280;8055;51.930;8.840;2023-07-13T01:28:24;75170.88;;;-145.72;97.10
15914;BME280;8055;51.930;8.840;2023-07-13T01:30:53;75175.00;;;-145.72;97.38
15914;BME280;8055;51.930;8.840;2023-07-13T01:33:19;75168.78;;;-145.72;94.61
15914;BME280;8055;51.930;8.840;2023-07-13T01:35:45;75164.66;;;-145.72;97.43
15914;BME280;8055;51.930;8.840;2023-07-13T01:38:15;75191.56;;;-145.72;100.00
15914;BME280;8055;51.930;8.840;2023-07-13T01:40:41;75177.06;;;-145.72;99.38
15914;BME280;8055;51.930;8.840;2023-07-13T01:43:06;75177.06;;;-145.72;95.97
15914;BME280;8055;51.930;8.840;2023-07-13T01:45:32;75166.72;;;-145.72;93.27
15914;BME280;8055;51.930;8.840;2023-07-13T01:47:58;75164.66;;;-145.72;92.84
15914;BME280;8055;51.930;8.840;2023-07-13T01:50:24;75154.31;;;-145.72;93.30
15914;BME280;8055;51.930;8.840;2023-07-13T01:52:50;75158.44;;;-145.72;96.37
15914;BME280;8055;51.930;8.840;2023-07-13T01:55:15;75150.16;;;-145.72;92.26
15914;BME280;8055;51.930;8.840;2023-07-13T01:57:40;75143.97;;;-145.72;91.60
15914;BME280;8055;51.930;8.840;2023-07-13T02:00:08;75139.81;;;-145.72;92.93
15914;BME280;8055;51.930;8.840;2023-07-13T02:02:34;75137.75;;;-145.72;90.85
15914;BME280;8055;51.930;8.840;2023-07-13T02:04:59;75141.91;;;-145.72;92.54
15914;BME280;8055;51.930;8.840;2023-07-13T02:07:25;75131.56;;;-145.72;96.15
15914;BME280;8055;51.930;8.840;2023-07-13T02:09:50;75146.03;;;-145.72;96.18
15914;BME280;8055;51.930;8.840;2023-07-13T02:12:16;75139.81;;;-145.72;97.20
15914;BME280;8055;51.930;8.840;2023-07-13T02:14:41;75135.69;;;-145.72;99.68
15914;BME280;8055;51.930;8.840;2023-07-13T02:17:06;75135.69;;;-145.72;94.53
15914;BME280;8055;51.930;8.840;2023-07-13T02:19:32;75139.81;;;-145.72;96.54
15914;BME280;8055;51.930;8.840;2023-07-13T02:21:57;75143.97;;;-145.72;100.00
15914;BME280;8055;51.930;8.840;2023-07-13T02:24:23;75150.16;;;-145.72;95.55
15914;BME280;8055;51.930;8.840;2023-07-13T02:26:48;75146.03;;;-145.72;96.01
15914;BME280;8055;51.930;8.840;2023-07-13T02:29:14;75160.50;;;-145.72;94.11
15914;BME280;8055;51.930;8.840;2023-07-13T02:31:39;75158.44;;;-145.72;94.32
15914;BME280;8055;51.930;8.840;2023-07-13T02:34:04;75160.50;;;-145.72;92.85
15914;BME280;8055;51.930;8.840;2023-07-13T02:36:31;75168.78;;;-145.72;95.08
15914;BME280;8055;51.930;8.840;2023-07-13T02:39:00;75162.59;;;-145.72;98.89
15914;BME280;8055;51.930;8.840;2023-07-13T02:41:26;75166.72;;;-145.72;96.92
15914;BME280;8055;51.930;8.840;2023-07-13T02:43:51;75164.66;;;-145.72;96.66
15914;BME280;8055;51.930;8.840;2023-07-13T02:46:16;75160.50;;;-145.72;97.13
15914;BME280;8055;51.930;8.840;2023-07-13T02:48:42;75158.44;;;-145.72;97.21
15914;BME280;8055;51.930;8.840;2023-07-13T02:51:08;75166.72;;;-145.72;97.76
15914;BME280;8055;51.930;8.840;2023-07-13T02:53:33;75160.50;;;-145.72;100.00
15914;BME280;8055;51.930;8.840;2023-07-13T02:56:00;75170.88;;;-145.72;95.82
15914;BME280;8055;51.930;8.840;2023-07-13T02:58:25;75183.28;;;-145.72;100.00
15914;BME280;8055;51.930;8.840;2023-07-13T03:00:51;75175.00;;;-145.72;98.49
15914;BME280;8055;51.930;8.840;2023-07-13T03:03:17;75183.28;;;-145.72;98.97
15914;BME280;8055;51.930;8.840;2023-07-13T03:05:44;75185.34;;;-145.72;100.00
15914;BME280;8055;51.930;8.840;2023-07-13T03:08:15;75187.41;;;-145.72;100.00
15914;BME280;8055;51.930;8.840;2023-07-13T03:10:40;75189.47;;;-145.72;99.65
15914;BME280;8055;51.930;8.840;2023-07-13T03:13:06;75201.91;;;-145.72;100.00
15914;BME280;8055;51.930;8.840;2023-07-13T03:15:31;75197.75;;;-145.72;100.00
15914;BME280;8055;51.930;8.840;2023-07-13T03:17:56;75191.56;;;-145.72;100.00
15914;BME280;8055;51.930;8.840;2023-07-13T03:20:22;75195.69;;;-145.72;100.00
15914;BME280;8055;51.930;8.840;2023-07-13T03:22:47;75191.56;;;-145.72;100.00
15914;BME280;8055;51.930;8.840;2023-07-13T03:25:12;75212.25;;;-145.72;100.00
15914;BME280;8055;51.930;8.840;2023-07-13T03:27:38;75220.50;;;-145.72;100.00
15914;BME280;8055;51.930;8.840;2023-07-13T03:30:05;75218.44;;;-145.72;100.00
15914;BME280;8055;51.930;8.840;2023-07-13T03:32:31;75226.72;;;-145.72;100.00
15914;BME280;8055;51.930;8.840;2023-07-13T03:34:56;75232.94;;;-145.72;100.00
15914;BME280;8055;51.930;8.840;2023-07-13T03:37:21;75241.19;;;-145.72;100.00
15914;BME280;8055;51.930;8.840;2023-07-13T03:39:47;75237.06;;;-145.72;100.00
15914;BME280;8055;51.930;8.840;2023-07-13T03:42:12;75235.00;;;-145.72;99.06
15914;BME280;8055;51.930;8.840;2023-07-13T03:44:39;75237.06;;;-145.72;97.80
15914;BME280;8055;51.930;8.840;2023-07-13T03:47:05;75243.28;;;-145.72;96.78
15914;BME280;8055;51.930;8.840;2023-07-13T03:49:31;75239.13;;;-145.72;96.52
15914;BME280;8055;51.930;8.840;2023-07-13T03:51:57;75243.28;;;-145.72;95.38
15914;BME280;8055;51.930;8.840;2023-07-13T03:54:22;75247.41;;;-145.72;94.97
15914;BME280;8055;51.930;8.840;2023-07-13T03:56:47;75247.41;;;-145.72;95.57
15914;BME280;8055;51.930;8.840;2023-07-13T03:59:13;75251.56;;;-145.72;93.20
15914;BME280;8055;51.930;8.840;2023-07-13T04:01:38;75259.81;;;-145.72;93.62
15914;BME280;8055;51.930;8.840;2023-07-13T04:04:04;75261.91;;;-145.72;92.73
15914;BME280;8055;51.930;8.840;2023-07-13T04:06:30;75272.25;;;-145.72;92.83
15914;BME280;8055;51.930;8.840;2023-07-13T04:08:58;75270.16;;;-145.72;92.79
15914;BME280;8055;51.930;8.840;2023-07-13T04:11:26;75266.03;;;-145.72;93.22
15914;BME280;8055;51.930;8.840;2023-07-13T04:13:52;75270.16;;;-145.72;92.35
15914;BME280;8055;51.930;8.840;2023-07-13T04:16:18;75270.16;;;-145.72;91.95
15914;BME280;8055;51.930;8.840;2023-07-13T04:18:45;75270.16;;;-145.72;89.82
15914;BME280;8055;51.930;8.840;2023-07-13T04:21:11;75278.44;;;-145.72;88.94
15914;BME280;8055;51.930;8.840;2023-07-13T04:23:37;75272.25;;;-145.72;89.25
15914;BME280;8055;51.930;8.840;2023-07-13T04:26:03;75288.78;;;-145.72;88.71
15914;BME280;8055;51.930;8.840;2023-07-13T04:28:28;75282.59;;;-145.72;87.80
15914;BME280;8055;51.930;8.840;2023-07-13T04:30:54;75284.66;;;-145.72;88.70
15914;BME280;8055;51.930;8.840;2023-07-13T04:33:19;75290.84;;;-145.72;88.99
15914;BME280;8055;51.930;8.840;2023-07-13T04:35:51;75292.94;;;-145.72;88.80
15914;BME280;8055;51.930;8.840;2023-07-13T04:38:26;75282.59;;;-145.72;87.19
15914;BME280;8055;51.930;8.840;2023-07-13T04:40:57;75282.59;;;-145.72;88.93
15914;BME280;8055;51.930;8.840;2023-07-13T04:43:23;75272.25;;;-145.72;87.86
15914;BME280;8055;51.930;8.840;2023-07-13T04:45:50;75270.16;;;-145.72;86.79
15914;BME280;8055;51.930;8.840;2023-07-13T04:48:15;75282.59;;;-145.72;87.86
15914;BME280;8055;51.930;8.840;2023-07-13T04:50:41;75266.03;;;-145.72;87.42
15914;BME280;8055;51.930;8.840;2023-07-13T04:53:06;75266.03;;;-145.72;85.17
15914;BME280;8055;51.930;8.840;2023-07-13T04:55:32;75266.03;;;-145.72;86.14
15914;BME280;8055;51.930;8.840;2023-07-13T04:57:57;75247.41;;;-145.72;84.88
15914;BME280;8055;51.930;8.840;2023-07-13T05:00:26;75245.34;;;-145.72;83.67
15914;BME280;8055;51.930;8.840;2023-07-13T05:02:51;75253.63;;;-145.72;86.28
15914;BME280;8055;51.930;8.840;2023-07-13T05:05:17;75251.56;;;-145.72;84.75
15914;BME280;8055;51.930;8.840;2023-07-13T05:07:42;75249.47;;;-145.72;85.81
15914;BME280;8055;51.930;8.840;2023-07-13T05:10:09;75257.75;;;-145.72;86.00
15914;BME280;8055;51.930;8.840;2023-07-13T05:12:34;75241.19;;;-145.72;84.58
15914;BME280;8055;51.930;8.840;2023-07-13T05:15:02;75237.06;;;-145.72;84.19
15914;BME280;8055;51.930;8.840;2023-07-13T05:17:28;75230.84;;;-145.72;83.70
15914;BME280;8055;51.930;8.840;2023-07-13T05:19:54;75232.94;;;-145.72;82.07
15914;BME280;8055;51.930;8.840;2023-07-13T05:22:19;75237.06;;;-145.72;80.65
15914;BME280;8055;51.930;8.840;2023-07-13T05:24:44;75232.94;;;-145.72;82.24
15914;BME280;8055;51.930;8.840;2023-07-13T05:27:10;75218.44;;;-145.72;82.17
15914;BME280;8055;51.930;8.840;2023-07-13T05:29:36;75220.50;;;-145.72;81.14
15914;BME280;8055;51.930;8.840;2023-07-13T05:32:02;75201.91;;;-145.72;81.09
15914;BME280;8055;51.930;8.840;2023-07-13T05:34:27;75212.25;;;-145.72;80.87
15914;BME280;8055;51.930;8.840;2023-07-13T05:36:52;75210.16;;;-145.72;81.07
15914;BME280;8055;51.930;8.840;2023-07-13T05:39:18;75214.31;;;-145.72;80.99
15914;BME280;8055;51.930;8.840;2023-07-13T05:41:44;75220.50;;;-145.72;81.47
15914;BME280;8055;51.930;8.840;2023-07-13T05:44:09;75220.50;;;-145.72;81.29
15914;BME280;8055;51.930;8.840;2023-07-13T05:46:34;75199.81;;;-145.72;82.60
15914;BME280;8055;51.930;8.840;2023-07-13T05:49:00;75201.91;;;-145.72;82.59
15914;BME280;8055;51.930;8.840;2023-07-13T05:51:26;75210.16;;;-145.72;80.49
15914;BME280;8055;51.930;8.840;2023-07-13T05:53:51;75218.44;;;-145.72;80.70
15914;BME280;8055;51.930;8.840;2023-07-13T05:56:16;75224.66;;;-145.72;82.54
15914;BME280;8055;51.930;8.840;2023-07-13T05:58:42;75214.31;;;-145.72;81.87
15914;BME280;8055;51.930;8.840;2023-07-13T06:01:12;75212.25;;;-145.72;82.65
15914;BME280;8055;51.930;8.840;2023-07-13T06:03:38;75206.03;;;-145.72;81.23
15914;BME280;8055;51.930;8.840;2023-07-13T06:06:08;75195.69;;;-145.72;79.97
15914;BME280;8055;51.930;8.840;2023-07-13T06:08:34;75193.63;;;-145.72;79.63
15914;BME280;8055;51.930;8.840;2023-07-13T06:11:15;75185.34;;;-145.72;78.52
15914;BME280;8055;51.930;8.840;2023-07-13T06:13:41;75191.56;;;-145.72;79.98
15914;BME280;8055;51.930;8.840;2023-07-13T06:16:07;75179.13;;;-145.72;80.75
15914;BME280;8055;51.930;8.840;2023-07-13T06:18:34;75175.00;;;-145.72;80.41
15914;BME280;8055;51.930;8.840;2023-07-13T06:21:00;75175.00;;;-145.72;80.41
15914;BME280;8055;51.930;8.840;2023-07-13T06:23:26;75183.28;;;-145.72;80.48
15914;BME280;8055;51.930;8.840;2023-07-13T06:25:51;75177.06;;;-145.72;78.31
15914;BME280;8055;51.930;8.840;2023-07-13T06:28:17;75179.13;;;-145.72;80.68
15914;BME280;8055;51.930;8.840;2023-07-13T06:30:42;75187.41;;;-145.72;80.64
15914;BME280;8055;51.930;8.840;2023-07-13T06:33:07;75187.41;;;-145.72;81.49
15914;BME280;8055;51.930;8.840;2023-07-13T06:35:33;75177.06;;;-145.72;81.73
15914;BME280;8055;51.930;8.840;2023-07-13T06:37:59;75170.88;;;-145.72;81.91
15914;BME280;8055;51.930;8.840;2023-07-13T06:40:24;75158.44;;;-145.72;81.68
15914;BME280;8055;51.930;8.840;2023-07-13T06:42:49;75148.09;;;-145.72;82.23
15914;BME280;8055;51.930;8.840;2023-07-13T06:45:15;75129.47;;;-145.72;81.82
15914;BME280;8055;51.930;8.840;2023-07-13T06:47:40;75129.47;;;-145.72;79.85
15914;BME280;8055;51.930;8.840;2023-07-13T06:50:07;75117.06;;;-145.72;78.93
15914;BME280;8055;51.930;8.840;2023-07-13T06:52:32;75110.88;;;-145.72;78.43
15914;BME280;8055;51.930;8.840;2023-07-13T06:54:58;75110.88;;;-145.72;80.51
15914;BME280;8055;51.930;8.840;2023-07-13T06:57:23;75102.59;;;-145.72;78.57
15914;BME280;8055;51.930;8.840;2023-07-13T06:59:48;75117.06;;;-145.72;81.24
15914;BME280;8055;51.930;8.840;2023-07-13T07:02:14;75117.06;;;-145.72;79.47
15914;BME280;8055;51.930;8.840;2023-07-13T07:04:39;75141.91;;;-145.72;80.96
15914;BME280;8055;51.930;8.840;2023-07-13T07:07:04;75146.03;;;-145.72;80.29
15914;BME280;8055;51.930;8.840;2023-07-13T07:09:30;75152.25;;;-145.72;81.68
15914;BME280;8055;51.930;8.840;2023-07-13T07:11:56;75141.91;;;-145.72;82.60
15914;BME280;8055;51.930;8.840;2023-07-13T07:14:22;75121.22;;;-145.72;82.49
15914;BME280;8055;51.930;8.840;2023-07-13T07:16:47;75098.44;;;-145.72;81.55
15914;BME280;8055;51.930;8.840;2023-07-13T07:19:13;75081.91;;;-145.72;82.15
15914;BME280;8055;51.930;8.840;2023-07-13T07:21:38;75071.56;;;-145.72;79.20
15914;BME280;8055;51.930;8.840;2023-07-13T07:24:04;75065.34;;;-145.72;78.81
15914;BME280;8055;51.930;8.840;2023-07-13T07:26:30;75067.41;;;-145.72;80.20
15914;BME280;8055;51.930;8.840;2023-07-13T07:28:56;75071.56;;;-145.72;79.56
15914;BME280;8055;51.930;8.840;2023-07-13T07:31:21;75059.13;;;-145.72;80.70
15914;BME280;8055;51.930;8.840;2023-07-13T07:33:47;75063.28;;;-145.72;79.94
15914;BME280;8055;51.930;8.840;2023-07-13T07:36:14;75055.00;;;-145.72;80.84
15914;BME280;8055;51.930;8.840;2023-07-13T07:38:40;75050.88;;;-145.72;81.30
15914;BME280;8055;51.930;8.840;2023-07-13T07:41:06;75046.72;;;-145.72;79.78
15914;BME280;8055;51.930;8.840;2023-07-13T07:43:31;75026.03;;;-145.72;82.88
15914;BME280;8055;51.930;8.840;2023-07-13T07:45:57;75021.91;;;-145.72;78.79
15914;BME280;8055;51.930;8.840;2023-07-13T07:48:22;75009.50;;;-145.72;76.81
15914;BME280;8055;51.930;8.840;2023-07-13T07:50:48;74999.16;;;-145.72;79.55
15914;BME280;8055;51.930;8.840;2023-07-13T07:53:14;75007.41;;;-145.72;79.37
15914;BME280;8055;51.930;8.840;2023-07-13T07:55:39;74984.66;;;-145.72;81.08
15914;BME280;8055;51.930;8.840;2023-07-13T07:58:05;74982.59;;;-145.72;77.39
15914;BME280;8055;51.930;8.840;2023-07-13T08:00:31;74970.19;;;-145.72;76.86
15914;BME280;8055;51.930;8.840;2023-07-13T08:02:58;74968.13;;;-145.72;78.83
15914;BME280;8055;51.930;8.840;2023-07-13T08:05:24;74959.84;;;-145.72;79.28
15914;BME280;8055;51.930;8.840;2023-07-13T08:07:49;74959.84;;;-145.72;77.00
15914;BME280;8055;51.930;8.840;2023-07-13T08:10:15;74974.31;;;-145.72;76.48
15914;BME280;8055;51.930;8.840;2023-07-13T08:12:40;74961.91;;;-145.72;77.18
15914;BME280;8055;51.930;8.840;2023-07-13T08:15:09;74972.25;;;-145.72;74.92
15914;BME280;8055;51.930;8.840;2023-07-13T08:17:36;74976.38;;;-145.72;76.30
15914;BME280;8055;51.930;8.840;2023-07-13T08:20:02;74976.38;;;-145.72;77.14
15914;BME280;8055;51.930;8.840;2023-07-13T08:22:27;74984.66;;;-145.72;77.23
15914;BME280;8055;51.930;8.840;2023-07-13T08:24:53;74961.91;;;-145.72;78.26
15914;BME280;8055;51.930;8.840;2023-07-13T08:27:23;74924.66;;;-145.72;78.66
15914;BME280;8055;51.930;8.840;2023-07-13T08:29:49;74918.47;;;-145.72;76.04
15914;BME280;8055;51.930;8.840;2023-07-13T08:32:15;74868.81;;;-145.72;76.93
15914;BME280;8055;51.930;8.840;2023-07-13T08:34:40;74831.56;;;-145.72;75.65
15914;BME280;8055;51.930;8.840;2023-07-13T08:37:06;74831.56;;;-145.72;72.13
15914;BME280;8055;51.930;8.840;2023-07-13T08:39:33;74817.09;;;-145.72;70.40
15914;BME280;8055;51.930;8.840;2023-07-13T08:42:39;74786.06;;;-145.72;74.53
15914;BME280;8055;51.930;8.840;2023-07-13T08:45:17;74769.50;;;-145.72;71.93
15914;BME280;8055;51.930;8.840;2023-07-13T08:47:48;74757.09;;;-145.72;69.84
15914;BME280;8055;51.930;8.840;2023-07-13T08:50:21;74794.34;;;-145.72;67.66
15914;BME280;8055;51.930;8.840;2023-07-13T08:52:49;74804.69;;;-145.72;70.92
15914;BME280;8055;51.930;8.840;2023-07-13T08:55:17;74800.53;;;-145.72;69.58
15914;BME280;8055;51.930;8.840;2023-07-13T08:57:46;74800.53;;;-145.72;70.52
15914;BME280;8055;51.930;8.840;2023-07-13T09:00:14;74802.63;;;-145.72;68.61
15914;BME280;8055;51.930;8.840;2023-07-13T09:02:52;74802.63;;;-145.72;68.08
15914;BME280;8055;51.930;8.840;2023-07-13T09:05:41;74819.16;;;-145.72;69.44
15914;BME280;8055;51.930;8.840;2023-07-13T09:11:36;74806.75;;;-145.72;67.14
15914;BME280;8055;51.930;8.840;2023-07-13T09:17:08;74843.97;;;-145.72;71.24
15914;BME280;8055;51.930;8.840;2023-07-13T09:19:35;74819.16;;;-145.72;66.74
15914;BME280;8055;51.930;8.840;2023-07-13T09:22:03;74796.41;;;-145.72;68.70
15914;BME280;8055;51.930;8.840;2023-07-13T09:24:50;74806.75;;;-145.72;68.74
15914;BME280;8055;51.930;8.840;2023-07-13T09:27:22;74812.94;;;-145.72;68.90
15914;BME280;8055;51.930;8.840;2023-07-13T09:29:54;74806.75;;;-145.72;69.16
15914;BME280;8055;51.930;8.840;2023-07-13T09:32:24;74815.03;;;-145.72;66.89
15914;BME280;8055;51.930;8.840;2023-07-13T09:34:54;74827.44;;;-145.72;68.65
15914;BME280;8055;51.930;8.840;2023-07-13T09:37:30;74815.03;;;-145.72;67.61
15914;BME280;8055;51.930;8.840;2023-07-13T09:39:56;74821.22;;;-145.72;67.54
15914;BME280;8055;51.930;8.840;2023-07-13T09:42:25;74837.78;;;-145.72;68.15
15914;BME280;8055;51.930;8.840;2023-07-13T09:44:53;74833.63;;;-145.72;69.38
15914;BME280;8055;51.930;8.840;2023-07-13T09:47:22;74829.50;;;-145.72;70.09
15914;BME280;8055;51.930;8.840;2023-07-13T09:49:54;74833.63;;;-145.72;69.13
15914;BME280;8055;51.930;8.840;2023-07-13T09:52:20;74810.88;;;-145.72;67.93
15914;BME280;8055;51.930;8.840;2023-07-13T09:54:51;74823.28;;;-145.72;67.84
15914;BME280;8055;51.930;8.840;2023-07-13T09:57:22;74784.00;;;-145.72;67.08
15914;BME280;8055;51.930;8.840;2023-07-13T09:59:50;74796.41;;;-145.72;66.41
15914;BME280;8055;51.930;8.840;2023-07-13T10:02:36;74784.00;;;-145.72;67.77
15914;BME280;8055;51.930;8.840;2023-07-13T10:05:06;74777.78;;;-145.72;66.53
15914;BME280;8055;51.930;8.840;2023-07-13T10:07:38;74786.06;;;-145.72;66.26
15914;BME280;8055;51.930;8.840;2023-07-13T10:10:17;74798.47;;;-145.72;65.78
15914;BME280;8055;51.930;8.840;2023-07-13T10:12:43;74800.53;;;-145.72;65.48
15914;BME280;8055;51.930;8.840;2023-07-13T10:15:18;74798.47;;;-145.72;64.06
15914;BME280;8055;51.930;8.840;2023-07-13T10:17:45;74769.50;;;-145.72;64.39
15914;BME280;8055;51.930;8.840;2023-07-13T10:20:10;74732.28;;;-145.72;63.75
15914;BME280;8055;51.930;8.840;2023-07-13T10:25:24;74759.16;;;-145.72;64.97
15914;BME280;8055;51.930;8.840;2023-07-13T10:27:53;74761.22;;;-145.72;63.36
15914;BME280;8055;51.930;8.840;2023-07-13T10:30:23;74748.81;;;-145.72;61.62
15914;BME280;8055;51.930;8.840;2023-07-13T10:32:51;74711.59;;;-145.72;62.05
15914;BME280;8055;51.930;8.840;2023-07-13T10:35:19;74699.19;;;-145.72;64.11
15914;BME280;8055;51.930;8.840;2023-07-13T10:38:13;74707.44;;;-145.72;60.84
15914;BME280;8055;51.930;8.840;2023-07-13T10:40:48;74736.41;;;-145.72;61.63
15914;BME280;8055;51.930;8.840;2023-07-13T10:43:25;74759.16;;;-145.72;61.90
15914;BME280;8055;51.930;8.840;2023-07-13T10:45:53;74730.22;;;-145.72;61.76
15914;BME280;8055;51.930;8.840;2023-07-13T10:48:20;74664.00;;;-145.72;62.35
15914;BME280;8055;51.930;8.840;2023-07-13T10:50:50;74620.56;;;-145.72;60.90
15914;BME280;8055;51.930;8.840;2023-07-13T10:53:28;74626.78;;;-145.72;58.11
15914;BME280;8055;51.930;8.840;2023-07-13T10:55:58;74674.34;;;-145.72;57.49
15914;BME280;8055;51.930;8.840;2023-07-13T10:58:29;74692.97;;;-145.72;58.03
15914;BME280;8055;51.930;8.840;2023-07-13T11:01:07;74699.19;;;-145.72;59.70
15914;BME280;8055;51.930;8.840;2023-07-13T11:03:36;74703.31;;;-145.72;60.47
15914;BME280;8055;51.930;8.840;2023-07-13T11:18:47;74672.28;;;-145.72;60.61
15914;BME280;8055;51.930;8.840;2023-07-13T11:21:18;74682.63;;;-145.72;57.86
15914;BME280;8055;51.930;8.840;2023-07-13T11:23:51;74709.53;;;-145.72;59.59
15914;BME280;8055;51.930;8.840;2023-07-13T11:26:37;74697.09;;;-145.72;58.03
15914;BME280;8055;51.930;8.840;2023-07-13T11:29:27;74705.38;;;-145.72;58.46
15914;BME280;8055;51.930;8.840;2023-07-13T11:32:24;74664.00;;;-145.72;58.35
15914;BME280;8055;51.930;8.840;2023-07-13T11:34:53;74632.97;;;-145.72;55.54
15914;BME280;8055;51.930;8.840;2023-07-13T11:37:19;74645.38;;;-145.72;57.00
15914;BME280;8055;51.930;8.840;2023-07-13T11:39:47;74632.97;;;-145.72;55.62
15914;BME280;8055;51.930;8.840;2023-07-13T11:42:16;74570.91;;;-145.72;54.67
15914;BME280;8055;51.930;8.840;2023-07-13T11:44:47;74502.66;;;-145.72;54.67
15914;BME280;8055;51.930;8.840;2023-07-13T11:47:22;74465.41;;;-145.72;54.47
15914;BME280;8055;51.930;8.840;2023-07-13T11:49:50;74473.69;;;-145.72;54.67
15914;BME280;8055;51.930;8.840;2023-07-13T11:52:19;74475.75;;;-145.72;53.23
15914;BME280;8055;51.930;8.840;2023-07-13T11:54:55;74502.66;;;-145.72;54.62
15914;BME280;8055;51.930;8.840;2023-07-13T11:57:25;74519.19;;;-145.72;55.30
15914;BME280;8055;51.930;8.840;2023-07-13T11:59:53;74546.09;;;-145.72;54.95
15914;BME280;8055;51.930;8.840;2023-07-13T12:02:31;74566.78;;;-145.72;55.13
15914;BME280;8055;51.930;8.840;2023-07-13T12:04:59;74608.16;;;-145.72;55.76
15914;BME280;8055;51.930;8.840;2023-07-13T12:07:29;74641.25;;;-145.72;56.31
15914;BME280;8055;51.930;8.840;2023-07-13T12:10:18;74604.00;;;-145.72;57.04
15914;BME280;8055;51.930;8.840;2023-07-13T12:12:52;74620.56;;;-145.72;55.80
15914;BME280;8055;51.930;8.840;2023-07-13T12:15:18;74645.38;;;-145.72;55.86
15914;BME280;8055;51.930;8.840;2023-07-13T12:17:44;74568.84;;;-145.72;54.23
15914;BME280;8055;51.930;8.840;2023-07-13T12:20:23;74546.09;;;-145.72;54.67
15914;BME280;8055;51.930;8.840;2023-07-13T12:22:50;74573.00;;;-145.72;52.55
15914;BME280;8055;51.930;8.840;2023-07-13T12:25:17;74606.09;;;-145.72;55.27
15914;BME280;8055;51.930;8.840;2023-07-13T12:27:47;74637.13;;;-145.72;54.10
15914;BME280;8055;51.930;8.840;2023-07-13T12:32:59;74630.91;;;-145.72;54.47
15914;BME280;8055;51.930;8.840;2023-07-13T12:35:28;74560.56;;;-145.72;52.64
15914;BME280;8055;51.930;8.840;2023-07-13T12:37:56;74453.00;;;-145.72;54.06
15914;BME280;8055;51.930;8.840;2023-07-13T12:40:28;74475.75;;;-145.72;51.28
15914;BME280;8055;51.930;8.840;2023-07-13T12:42:58;74513.00;;;-145.72;51.04
15914;BME280;8055;51.930;8.840;2023-07-13T12:45:26;74558.50;;;-145.72;52.32
15914;BME280;8055;51.930;8.840;2023-07-13T12:47:57;74568.84;;;-145.72;53.83
15914;BME280;8055;51.930;8.840;2023-07-13T12:50:34;74577.13;;;-145.72;53.15
15914;BME280;8055;51.930;8.840;2023-07-13T12:53:03;74527.47;;;-145.72;54.04
15914;BME280;8055;51.930;8.840;2023-07-13T12:55:41;74434.41;;;-145.72;54.32
15914;BME280;8055;51.930;8.840;2023-07-13T12:58:16;74415.78;;;-145.72;49.14
15914;BME280;8055;51.930;8.840;2023-07-13T13:00:48;74446.81;;;-145.72;49.15
15914;BME280;8055;51.930;8.840;2023-07-13T13:03:26;74508.88;;;-145.72;50.12
15914;BME280;8055;51.930;8.840;2023-07-13T13:06:02;74552.31;;;-145.72;51.08
15914;BME280;8055;51.930;8.840;2023-07-13T13:08:29;74579.19;;;-145.72;52.24
15914;BME280;8055;51.930;8.840;2023-07-13T13:10:55;74620.56;;;-145.72;52.07
15914;BME280;8055;51.930;8.840;2023-07-13T13:13:21;74635.03;;;-145.72;54.69
15914;BME280;8055;51.930;8.840;2023-07-13T13:15:47;74645.38;;;-145.72;53.54
15914;BME280;8055;51.930;8.840;2023-07-13T13:18:21;74661.94;;;-145.72;54.72
15914;BME280;8055;51.930;8.840;2023-07-13T13:20:48;74670.22;;;-145.72;54.78